ADDS METAR Data INFO
IDs: Format: Raw Decoded Include TAF

Data at: 0043 UTC 22 Oct 2017

KOWD 212353Z 00000KT 10SM CLR 16/09 A3030 RMK AO2 SLP261 T01610094 10272 20156 51016
KOWD 212253Z 15003KT 10SM CLR 16/08 A3029 RMK AO2 SLP256 T01610083
KOWD 212153Z 15006KT 10SM CLR 19/08 A3027 RMK AO2 SLP251 T01940083
KOWD 212053Z 25006KT 10SM CLR 24/06 A3025 RMK AO2 SLP244 T02390061 53003
KOWD 211953Z 24008KT 10SM CLR 26/03 A3025 RMK AO2 SLP242 T02610033
KOWD 211853Z 24008KT 10SM CLR 27/02 A3024 RMK AO2 SLP239 T02670022
KOWD 211753Z 25008KT 10SM CLR 26/05 A3025 RMK AO2 SLP242 T02610050 10261 20050 58015
KOWD 211653Z VRB03KT 10SM CLR 24/05 A3026 RMK AO2 SLP247 T02440050
KOWD 211553Z 25005KT 10SM CLR 23/06 A3028 RMK AO2 SLP255 T02280061
KOWD 211453Z 25005KT 10SM CLR 21/06 A3029 RMK AO2 SLP257 T02060061 51007
KOWD 211353Z 21004KT 10SM CLR 17/06 A3029 RMK AO2 SLP256 T01670056
KOWD 211253Z 00000KT 10SM CLR 11/07 A3028 RMK AO2 SLP254 T01110072
KOWD 211153Z 00000KT 10SM CLR 05/04 A3027 RMK AO2 SLP250 T00500039 10067 20017 53016
KOWD 211053Z 00000KT 10SM CLR 03/02 A3025 RMK AO2 SLP243 T00330017
KOWD 210953Z AUTO 00000KT 10SM CLR 03/02 A3024 RMK AO2 SLP239 T00330017
KOWD 210853Z AUTO 00000KT 10SM CLR 04/03 A3022 RMK AO2 SLP234 T00390033 53011
KOWD 210753Z AUTO 00000KT 10SM CLR 04/03 A3020 RMK AO2 SLP227 T00440033
KOWD 210653Z AUTO 29003KT 10SM CLR 06/04 A3019 RMK AO2 SLP223 T00560039
KOWD 210553Z AUTO 00000KT 10SM CLR 05/03 A3019 RMK AO2 SLP223 T00500028 10128 20044 53018
KOWD 210453Z AUTO 00000KT 10SM CLR 07/04 A3017 RMK AO2 SLP217 T00670044 402280056
KOWD 210353Z AUTO 00000KT 10SM CLR 07/04 A3015 RMK AO2 SLP210 T00670044
KOWD 210253Z AUTO 00000KT 10SM CLR 09/04 A3014 RMK AO2 SLP205 T00890044 53021
KOWD 210153Z 00000KT 10SM CLR 08/04 A3012 RMK AO2 SLP198 T00830039
KOWD 210053Z 00000KT 10SM CLR 08/04 A3010 RMK AO2 SLP191 T00830039
KOWD 202353Z 00000KT 10SM CLR 11/05 A3008 RMK AO2 SLP184 T01110050 10228 20111 53021
KOWD 202253Z 31003KT 10SM CLR 17/02 A3006 RMK AO2 SLP179 T01720022
KOWD 202153Z 28006KT 10SM CLR 19/02 A3003 RMK AO2 SLP169 T01940022
KOWD 202053Z 32009KT 10SM CLR 22/03 A3002 RMK AO2 SLP164 T02170028 53004
KOWD 201953Z 31011KT 10SM CLR 22/03 A3001 RMK AO2 SLP160 T02220033
KOWD 201853Z 29008KT 10SM CLR 22/04 A3000 RMK AO2 SLP158 T02220044
KOWD 201753Z VRB06KT 10SM CLR 22/05 A3000 RMK AO2 SLP159 T02170050 10217 20144 58021
KOWD 201653Z 32007G18KT 290V350 10SM CLR 21/06 A3003 RMK AO2 SLP168 T02110056
KOWD 201553Z 33008KT 10SM CLR 21/06 A3005 RMK AO2 SLP175 T02060061
KOWD 201453Z 28009KT 10SM CLR 19/07 A3007 RMK AO2 SLP180 T01940072 50006
KOWD 201353Z 30008KT 10SM CLR 18/08 A3008 RMK AO2 SLP185 T01780078
KOWD 201253Z 27008KT 10SM CLR 16/08 A3006 RMK AO2 SLP179 T01610083